Accueil
METAR-TAF:

METAR-TAF

Aéroports :

Aéroport international de Douchanbé

Douchanbé, Tadjikistan

latitude: 38-33N, longitude: 068-47E, altitude: 803 m

Observation

Le bulletin a été fait il y a 37 minutes, à 10:30 UTC
Vent 17 kt de est
Température 13°C
Humidité 30%
Pression 1017 hPa
Visibilité 10 km ou plus

METAR: UTDD 161030Z 10009MPS 9999 NSC 13/M04 Q1017 R09/D NOSIG RMK QFE694/0926

Heure: 16:07 (11:07 UTC)

Prévision

Le bulletin a été fait il y a 2 heures et 7 minutes, à 09:00 UTC
Prévision valable du 16 à 10 UTC au 16 à 22 UTC
Vent 4 kt de direction variable
Visibilité: 6000 m
Quelques nuages à une hauteur de 6000 ft
Nuages épars à une hauteur de 12000 ft
Temporairement
du 16 à 10 UTC au 16 à 16 UTC
Vent 10 kt de est
Temporairement
du 16 à 16 UTC au 16 à 22 UTC
Vent 10 kt de est/nord-est

TAF: UTDD 160900Z 1610/1622 VRB02MPS 6000 FEW060 SCT120 TEMPO 1610/1616 10005MPS TEMPO 1616/1622 07005MPS

Observations et prévisions météorologiques de plus de 4000 aéroports (messages METAR et TAF).

Les stations disponibles sont représentées par des disques jaunes et rouges sur la carte.

Passer la souris dessus pour voir le nom de la station.

Cliquer dessus pour voir les observations et prévisions météorologiques.

Pour changer de carte: cliquez sur les boutons verts avec une croix noire pour zoomer, sur le bouton vert avec un tiret pour effectuer un zoom arrière, ou sur les flèches vertes pour les cartes adjacentes.


METAR-TAF: